Terminal Aerodrome Forecast
Issued by NWS Grand Forks, ND

Home | Current Version | Previous Version | Text Only | Print | Product List | Glossary Off
Versions: 1 2 3 4 5 6 7 8 9 10 11 12

123
FTUS43 KFGF 160520
TAFGFK
TAF
KGFK 160520Z 1606/1706 18008KT P6SM SCT250
     FM161600 22004KT P6SM FEW250=

USA.gov is the U.S. government's official web portal to all federal, state and local government web resources and services.